메인 페이지
METAR-TAF:

METAR-TAF

공항 :

야운데, 카메룬

위도: 03-50N, 경도: 011-31E, 고도: 751m

현재 날씨관측

예보는 1 시간 5분 전, 02:00시(UTC)에 발표되었습니다.
남서4kt
온도 21°C
습도 100%
기압 1016 hPa
시정: 6000m
고도 600ft 상공 구름 많음

METAR: FKYS 160200Z 23004KT 6000 BKN006 21/21 Q1016 NOSIG

시각: 04:05 (03:05 UTC)

예보

예보는 4 시간 5분 전, 23:00시(UTC)에 발표되었습니다.
예보 대상 시간: 16일 00시부터 16일 24시까지 (UTC)
3kt
시정 10km 이상
고도 600ft 상공 구름 많음
고도 1600ft 상공 구름 조금, 적란운.
일시적
16일 04시부터 16일 07시까지 (UTC)
시정: 3000m
박무
전환 중
16일 08시부터 16일 10시까지 (UTC)
고도 1600ft 상공 구름 많음

TAF: FKYS 152300Z 1600/1624 26003KT 9999 BKN006 FEW016CB TEMPO 1604/1607 3000 BR BECMG 1608/1610 BKN016

4,000개 이상의 공항 관측 자료 및 예보 (METAR 및 TAF 보고).

지도상에서 검색 가능한 기상관측소가 노란 점과 빨간 점으로 표시되어 있습니다.

기상관측소 명을 보려면 표시 위로 마우스를 이동하세요.

날씨 관측과 예보를 보려면 클릭하세요.

지도 변경 : 확대하려면 엑스 표시가 있는 녹색 버튼, 축소하려면 빼기 표시가 있는 녹색 버튼, 다음 페이지의 지도를 보려면 녹색 화살표를 클릭하세요.


METAR-TAF: